Lebanon, Missouri
Current Conditions -  °F | °C
As of 6:15 PM on Sunday 25 Jan 2015 (Local Time) from KH21 Reporting Station
Overcast Overcast  
Wind Chill: 23°   Ceiling: 800
Heat Index: 34°   Visibility: 10mi
Dew Point: 32°   Wind: 17mph
Humidity: 93%   Direction: 310°NW
Pressure: 29.96"   Gusts: 25mph
Location:  37.68°N, 92.66°W
Report Text: KH21 260015Z AUTO 31015G22KT 10SM OVC008 01/00 A2996 RMK AO2
Loading
Personal Weather Stations






























Interactive Weather Map New forecast layout! Learn more

10-Day Weather Forecast

Advertisements
Track Severe Weather on mobile